Time;durP1;ratioP1;P1;durP2;ratioP2;P2;SDS_P1;SDS_P2;PMS_P1;PMS_P2;Temp;Humidity;BMP_temperature;BMP_pressure;BME280_temperature;BME280_humidity;BME280_pressure;Samples;Min_cycle;Max_cycle;Signal;HPM_P1;HPM_P2
2022/12/02 11:34:51;;;;;;;33.00;13.90;;;;;;;-1.82;100.00;100299.55;100458;1352;2735029;-28
2022/12/02 11:37:27;;;;;;;36.20;14.00;;;;;;;-1.78;100.00;100299.49;103049;1355;33335;-33
2022/12/02 11:39:52;;;;;;;;;;;;;;;-1.82;100.00;100299.77;103089;1358;22510;-29
2022/12/02 11:42:21;;;;;;;21.10;11.10;;;;;;;-1.87;100.00;100298.65;103167;1358;22272;-33
2022/12/02 11:44:46;;;;;;;19.70;11.00;;;;;;;-1.87;100.00;100298.11;103181;1358;22295;-30
2022/12/02 11:47:19;;;;;;;23.70;11.20;;;;;;;-1.85;100.00;100291.14;102833;1358;581715;-29
2022/12/02 11:49:47;;;;;;;34.20;13.90;;;;;;;-1.91;100.00;100292.92;103347;1352;22940;-33
2022/12/02 11:52:17;;;;;;;27.60;12.60;;;;;;;-1.96;100.00;100290.39;103391;1355;22571;-34
2022/12/02 11:54:47;;;;;;;26.80;11.30;;;;;;;-2.00;100.00;100284.73;103348;1356;22576;-33
2022/12/02 11:57:18;;;;;;;30.40;11.30;;;;;;;-2.03;100.00;100285.41;103399;1348;22572;-34
2022/12/02 11:59:44;;;;;;;23.90;10.30;;;;;;;-2.02;100.00;100279.74;103318;1350;22418;-29
2022/12/02 12:02:12;;;;;;;30.50;14.20;;;;;;;-2.03;100.00;100279.30;103256;1341;22118;-29
2022/12/02 12:04:38;;;;;;;28.90;10.80;;;;;;;-2.11;100.00;100280.44;103430;1354;22512;-33
2022/12/02 12:07:03;;;;;;;63.60;23.30;;;;;;;-2.12;100.00;100283.69;103563;1353;22566;-33
2022/12/02 12:09:29;;;;;;;54.70;18.80;;;;;;;-2.13;100.00;100279.15;103376;1349;22561;-33
2022/12/02 12:12:02;;;;;;;47.40;19.70;;;;;;;-2.12;100.00;100278.77;103581;1352;22552;-33
2022/12/02 12:14:27;;;;;;;49.70;16.50;;;;;;;-2.18;100.00;100281.41;103566;1354;22999;-30
2022/12/02 12:16:53;;;;;;;41.10;13.90;;;;;;;-2.17;100.00;100284.36;103587;1349;23022;-34
2022/12/02 12:19:26;;;;;;;72.80;30.40;;;;;;;-2.16;100.00;100279.00;103637;1350;22381;-33
2022/12/02 12:21:54;;;;;;;;;;;;;;;-2.16;100.00;100275.34;103278;1348;22551;-29
2022/12/02 12:24:24;;;;;;;27.00;12.00;;;;;;;-2.14;100.00;100278.73;103600;1353;22221;-33
2022/12/02 12:26:50;;;;;;;34.00;14.70;;;;;;;-2.14;100.00;100274.85;103539;1354;22585;-33
2022/12/02 12:29:16;;;;;;;36.90;16.20;;;;;;;-2.11;100.00;100278.17;102755;1354;24377;-33
2022/12/02 12:31:42;;;;;;;72.40;32.20;;;;;;;-2.10;100.00;100274.79;103245;1351;22652;-30
2022/12/02 12:34:08;;;;;;;38.70;17.40;;;;;;;-2.10;100.00;100274.09;103303;1348;22590;-29
2022/12/02 12:36:34;;;;;;;39.30;21.20;;;;;;;-2.08;100.00;100271.70;103435;1353;22114;-33
2022/12/02 12:45:28;;;;;;;35.80;17.30;;;;;;;-2.11;100.00;100273.61;103173;1347;544675;-28
2022/12/02 12:47:55;;;;;;;42.50;19.80;;;;;;;-2.10;100.00;100274.94;103376;1349;22392;-28
2022/12/02 12:50:21;;;;;;;85.00;40.20;;;;;;;-2.12;100.00;100278.59;103234;1357;24423;-32
2022/12/02 12:52:46;;;;;;;131.30;48.60;;;;;;;-2.15;100.00;100277.17;103295;1349;22575;-28
2022/12/02 12:55:11;;;;;;;36.20;16.40;;;;;;;-2.18;100.00;100282.48;103315;1348;23841;-32
2022/12/02 12:57:37;;;;;;;36.40;15.70;;;;;;;-2.21;100.00;100289.00;102947;1349;22596;-28
2022/12/02 13:00:04;;;;;;;21.80;13.00;;;;;;;-2.24;100.00;100288.83;103269;1349;391803;-33
2022/12/02 13:02:30;;;;;;;115.40;61.80;;;;;;;-2.20;100.00;100290.47;103583;1354;22394;-29
2022/12/02 13:04:55;;;;;;;41.50;20.20;;;;;;;-2.20;100.00;100286.48;103535;1350;22399;-32
2022/12/02 13:07:21;;;;;;;56.60;26.50;;;;;;;-2.19;100.00;100282.16;103287;1348;22568;-28
2022/12/02 13:09:46;;;;;;;47.40;22.80;;;;;;;-2.20;100.00;100281.69;103276;1348;22593;-33
2022/12/02 13:12:12;;;;;;;45.70;20.70;;;;;;;-2.18;100.00;100277.73;103557;1353;22153;-32
2022/12/02 13:14:37;;;;;;;31.00;15.80;;;;;;;-2.16;100.00;100279.55;103573;1348;22573;-32
2022/12/02 13:17:03;;;;;;;24.40;12.00;;;;;;;-2.13;100.00;100276.52;103649;1348;22574;-28
2022/12/02 13:19:28;;;;;;;42.20;18.70;;;;;;;-2.16;100.00;100279.35;103641;1347;22571;-32
2022/12/02 13:21:54;;;;;;;95.50;37.50;;;;;;;-2.18;100.00;100283.88;103630;1347;22549;-32
2022/12/02 13:24:20;;;;;;;65.80;29.00;;;;;;;-2.17;100.00;100284.52;103654;1349;22600;-32
2022/12/02 13:26:45;;;;;;;80.50;37.00;;;;;;;-2.16;100.00;100279.92;103587;1347;22140;-31
2022/12/02 13:29:11;;;;;;;29.70;14.60;;;;;;;-2.18;100.00;100284.56;102666;1352;22226;-30
2022/12/02 13:31:36;;;;;;;43.80;22.90;;;;;;;-2.18;100.00;100281.05;103632;1347;24457;-31
2022/12/02 13:34:02;;;;;;;26.80;13.30;;;;;;;-2.17;100.00;100281.70;103409;1349;22640;-35
2022/12/02 13:36:27;;;;;;;209.20;70.70;;;;;;;-2.21;100.00;100288.77;103449;1347;22576;-29
2022/12/02 13:38:53;;;;;;;52.40;23.80;;;;;;;-2.18;100.00;100285.10;103695;1347;22241;-32
2022/12/02 13:41:18;;;;;;;143.20;63.60;;;;;;;-2.24;100.00;100288.08;103779;1346;22369;-28
2022/12/02 13:43:44;;;;;;;127.90;56.30;;;;;;;-2.23;100.00;100288.56;103531;1347;22630;-29
2022/12/02 13:46:10;;;;;;;46.20;16.40;;;;;;;-2.23;100.00;100285.95;103751;1347;22148;-32
2022/12/02 13:48:37;;;;;;;41.30;16.70;;;;;;;-2.23;100.00;100286.65;103721;1338;22562;-28
2022/12/02 13:51:03;;;;;;;73.40;20.20;;;;;;;-2.22;100.00;100291.48;103749;1345;22432;-32
2022/12/02 13:53:28;;;;;;;20.30;11.00;;;;;;;-2.23;100.00;100289.77;103679;1347;22123;-28
2022/12/02 13:55:54;;;;;;;48.20;15.40;;;;;;;-2.23;100.00;100292.98;103799;1346;22567;-32
2022/12/02 13:58:19;;;;;;;28.10;11.10;;;;;;;-2.27;100.00;100291.09;103463;1347;22565;-32
2022/12/02 14:00:45;;;;;;;41.20;15.40;;;;;;;-2.27;100.00;100289.90;103611;1345;22649;-28
2022/12/02 14:03:10;;;;;;;33.50;13.80;;;;;;;-2.30;100.00;100291.67;103751;1347;22235;-32
2022/12/02 14:05:36;;;;;;;40.20;19.70;;;;;;;-2.33;100.00;100293.73;103734;1345;22561;-32
2022/12/02 14:08:02;;;;;;;30.60;13.50;;;;;;;-2.34;100.00;100291.14;103241;1347;22585;-31
2022/12/02 14:10:27;;;;;;;38.30;15.90;;;;;;;-2.33;100.00;100294.29;103235;1349;22540;-28
2022/12/02 14:12:55;;;;;;;34.20;14.80;;;;;;;-2.35;100.00;100298.27;103727;1345;22184;-28
2022/12/02 14:15:22;;;;;;;33.00;13.40;;;;;;;-2.35;100.00;100302.98;103684;1351;22315;-32
2022/12/02 14:17:47;;;;;;;30.00;14.00;;;;;;;-2.36;100.00;100301.08;103278;1346;22413;-32
2022/12/02 14:20:13;;;;;;;43.70;21.30;;;;;;;-2.30;100.00;100298.45;103796;1347;22561;-29
2022/12/02 14:22:38;;;;;;;41.00;17.60;;;;;;;-2.32;100.00;100304.73;103784;1346;22278;-33
2022/12/02 14:25:04;;;;;;;71.20;24.60;;;;;;;-2.34;100.00;100302.91;103304;1345;22284;-32
2022/12/02 14:27:30;;;;;;;83.10;36.80;;;;;;;-2.36;100.00;100301.45;103733;1345;23079;-28
2022/12/02 14:29:55;;;;;;;49.90;19.80;;;;;;;-2.25;100.00;100298.19;103740;1346;22363;-32
2022/12/02 14:32:21;;;;;;;50.90;23.10;;;;;;;-2.31;100.00;100303.28;103446;1347;22638;-28
2022/12/02 14:34:46;;;;;;;66.20;32.60;;;;;;;-2.40;100.00;100302.35;103670;1345;22277;-28
2022/12/02 14:37:12;;;;;;;44.80;19.90;;;;;;;-2.37;100.00;100301.51;103607;1346;22590;-29
2022/12/02 14:39:37;;;;;;;258.00;95.30;;;;;;;-2.39;100.00;100301.45;103417;1347;22605;-29
2022/12/02 14:42:03;;;;;;;145.90;56.90;;;;;;;-2.42;100.00;100302.85;103746;1348;22577;-29
2022/12/02 14:44:29;;;;;;;168.10;57.90;;;;;;;-2.41;100.00;100304.72;103542;1348;22262;-29
2022/12/02 14:46:54;;;;;;;76.80;24.30;;;;;;;-2.40;100.00;100305.17;103610;1349;22486;-33
2022/12/02 14:49:20;;;;;;;270.50;99.70;;;;;;;-2.33;100.00;100307.95;103501;1345;22611;-32
2022/12/02 14:51:46;;;;;;;64.70;30.80;;;;;;;-2.27;100.00;100304.59;103664;1353;22288;-33
2022/12/02 14:54:11;;;;;;;103.90;47.40;;;;;;;-2.32;100.00;100306.10;103586;1347;23853;-33
2022/12/02 14:56:37;;;;;;;88.00;47.20;;;;;;;-2.45;100.00;100311.27;103794;1346;22453;-29
2022/12/02 14:59:02;;;;;;;44.70;25.20;;;;;;;-2.47;100.00;100309.15;103440;1346;22150;-33
2022/12/02 15:01:28;;;;;;;148.90;85.20;;;;;;;-2.46;100.00;100311.69;103282;1345;22680;-29
2022/12/02 15:03:53;;;;;;;71.70;37.90;;;;;;;-2.46;100.00;100310.15;103554;1347;22584;-33
2022/12/02 15:06:19;;;;;;;43.50;20.30;;;;;;;-2.49;100.00;100310.66;103593;1347;22459;-29
2022/12/02 15:08:44;;;;;;;41.40;18.30;;;;;;;-2.47;100.00;100305.27;103093;1345;22573;-33
2022/12/02 15:11:10;;;;;;;56.00;25.90;;;;;;;-2.42;100.00;100308.64;103750;1345;22227;-29
2022/12/02 15:13:35;;;;;;;82.60;49.70;;;;;;;-2.46;100.00;100312.39;103554;1347;22586;-32
2022/12/02 15:16:01;;;;;;;196.20;95.30;;;;;;;-2.50;100.00;100312.98;103783;1350;22591;-33
2022/12/02 15:18:26;;;;;;;178.70;84.80;;;;;;;-2.51;100.00;100311.80;103652;1351;22961;-29
2022/12/02 15:20:52;;;;;;;90.70;30.30;;;;;;;-2.50;100.00;100307.54;103575;1347;23143;-29
2022/12/02 15:23:17;;;;;;;66.80;30.70;;;;;;;-2.45;100.00;100303.55;103563;1340;22562;-33
2022/12/02 15:25:43;;;;;;;53.70;19.50;;;;;;;-2.51;100.00;100305.52;103636;1347;22575;-29
2022/12/02 15:28:08;;;;;;;55.10;19.90;;;;;;;-2.60;100.00;100305.33;103675;1345;22145;-33
2022/12/02 15:30:34;;;;;;;71.90;29.50;;;;;;;-2.58;100.00;100303.63;103703;1345;22277;-33
2022/12/02 15:32:59;;;;;;;110.90;41.40;;;;;;;-2.62;100.00;100305.43;103687;1353;22248;-33
2022/12/02 15:35:25;;;;;;;112.70;44.80;;;;;;;-2.65;100.00;100303.35;103749;1347;22578;-33
2022/12/02 15:37:51;;;;;;;68.70;29.00;;;;;;;-2.67;100.00;100306.46;103753;1347;22140;-30
2022/12/02 15:40:16;;;;;;;124.50;60.50;;;;;;;-2.71;100.00;100309.68;103511;1346;22227;-28
2022/12/02 15:42:42;;;;;;;66.50;29.00;;;;;;;-2.69;100.00;100310.45;103769;1346;22434;-29
2022/12/02 15:45:08;;;;;;;199.60;74.00;;;;;;;-2.70;100.00;100309.44;103784;1346;22132;-30
2022/12/02 15:47:34;;;;;;;369.30;132.10;;;;;;;-2.72;100.00;100309.89;103553;1336;22165;-33
2022/12/02 15:49:59;;;;;;;50.00;26.50;;;;;;;-2.69;100.00;100310.23;103980;1341;22561;-29
2022/12/02 15:52:25;;;;;;;119.90;66.30;;;;;;;-2.64;100.00;100305.56;103922;1341;22263;-33
2022/12/02 15:54:50;;;;;;;112.80;55.00;;;;;;;-2.63;100.00;100315.31;103962;1341;22422;-33
2022/12/02 15:57:16;;;;;;;101.50;53.40;;;;;;;-2.64;100.00;100313.98;103900;1341;22341;-30
2022/12/02 15:59:42;;;;;;;78.80;37.10;;;;;;;-2.65;100.00;100311.60;103861;1342;22580;-33
2022/12/02 16:02:08;;;;;;;82.80;41.20;;;;;;;-2.65;100.00;100310.70;103988;1341;22246;-29
2022/12/02 16:04:34;;;;;;;92.30;44.70;;;;;;;-2.62;100.00;100312.47;103900;1339;23173;-28
2022/12/02 16:06:59;;;;;;;94.00;37.40;;;;;;;-2.61;100.00;100315.89;103970;1341;22642;-33
2022/12/02 16:09:25;;;;;;;52.40;23.20;;;;;;;-2.59;100.00;100315.30;104001;1333;22542;-30
2022/12/02 16:11:50;;;;;;;1092.10;417.00;;;;;;;-2.57;100.00;100316.36;103924;1334;22147;-33
2022/12/02 16:14:16;;;;;;;267.30;109.00;;;;;;;-2.58;100.00;100318.23;104013;1341;22599;-33
2022/12/02 16:16:41;;;;;;;89.30;36.60;;;;;;;-2.59;100.00;100319.10;103892;1341;24455;-32
2022/12/02 16:19:07;;;;;;;130.00;69.00;;;;;;;-2.59;100.00;100315.45;103631;1341;22586;-29
2022/12/02 16:21:32;;;;;;;101.30;54.10;;;;;;;-2.58;100.00;100317.14;103915;1341;22597;-33
2022/12/02 16:23:58;;;;;;;75.40;21.70;;;;;;;-2.62;100.00;100315.60;103746;1341;24268;-29
2022/12/02 16:26:24;;;;;;;70.30;26.20;;;;;;;-2.62;100.00;100314.94;103474;1340;22583;-33
2022/12/02 16:28:49;;;;;;;54.20;24.60;;;;;;;-2.60;100.00;100315.68;103981;1341;22135;-33
2022/12/02 16:31:14;;;;;;;49.50;28.80;;;;;;;-2.60;100.00;100314.98;103893;1341;22341;-29
2022/12/02 16:33:40;;;;;;;71.40;22.80;;;;;;;-2.60;100.00;100320.04;103806;1347;22554;-29
2022/12/02 16:36:08;;;;;;;56.70;22.40;;;;;;;-2.62;100.00;100326.16;103993;1345;22191;-32
2022/12/02 16:38:34;;;;;;;547.40;207.70;;;;;;;-2.61;100.00;100325.75;104002;1341;22434;-29
2022/12/02 16:40:59;;;;;;;456.50;187.50;;;;;;;-2.58;100.00;100323.13;103970;1341;22586;-33
2022/12/02 16:43:25;;;;;;;173.90;70.80;;;;;;;-2.61;100.00;100326.80;103999;1341;22248;-29
2022/12/02 16:45:50;;;;;;;57.30;30.50;;;;;;;-2.64;100.00;100326.94;103917;1341;22557;-28
2022/12/02 16:48:16;;;;;;;481.00;181.60;;;;;;;-2.56;100.00;100327.17;103678;1341;22188;-29
2022/12/02 16:50:42;;;;;;;149.00;54.10;;;;;;;-2.56;100.00;100331.78;103547;1341;22537;-29
2022/12/02 16:53:07;;;;;;;245.40;97.90;;;;;;;-2.64;100.00;100338.52;103864;1341;22434;-29
2022/12/02 16:55:33;;;;;;;287.90;119.20;;;;;;;-2.63;100.00;100334.27;102949;1341;22569;-29
2022/12/02 16:57:59;;;;;;;121.70;51.80;;;;;;;-2.65;100.00;100338.77;103875;1341;22567;-33
2022/12/02 17:00:24;;;;;;;251.60;112.70;;;;;;;-2.69;100.00;100342.52;103881;1335;22247;-29
2022/12/02 17:02:50;;;;;;;70.90;27.00;;;;;;;-2.67;100.00;100341.53;103990;1341;22108;-33
2022/12/02 17:05:16;;;;;;;77.90;36.20;;;;;;;-2.57;100.00;100339.55;103819;1341;24300;-29
2022/12/02 17:07:41;;;;;;;188.80;83.70;;;;;;;-2.62;100.00;100346.31;103936;1341;22445;-33
2022/12/02 17:10:08;;;;;;;236.40;111.50;;;;;;;-2.71;100.00;100343.34;103986;1338;22615;-33
2022/12/02 17:12:34;;;;;;;140.50;56.70;;;;;;;-2.65;100.00;100340.02;103742;1348;22266;-33
2022/12/02 17:14:59;;;;;;;;;;;;;;;-2.68;100.00;100338.25;103771;1347;22154;-29
2022/12/02 17:17:25;;;;;;;348.80;135.50;;;;;;;-2.69;100.00;100344.27;103975;1341;22626;-29
2022/12/02 17:19:51;;;;;;;174.00;62.50;;;;;;;-2.71;100.00;100344.02;103936;1341;22618;-33
2022/12/02 17:22:16;;;;;;;99.20;32.90;;;;;;;-2.70;100.00;100343.79;103898;1341;22113;-31
2022/12/02 17:24:42;;;;;;;84.10;27.50;;;;;;;-2.72;100.00;100352.66;103945;1341;22515;-35
2022/12/02 17:27:07;;;;;;;72.90;32.90;;;;;;;-2.68;100.00;100349.27;103839;1341;24452;-35
2022/12/02 17:29:33;;;;;;;189.10;90.00;;;;;;;-2.75;100.00;100349.86;103987;1341;22251;-33
2022/12/02 17:31:58;;;;;;;66.00;31.40;;;;;;;-2.73;100.00;100350.09;103977;1341;22268;-33
2022/12/02 17:34:25;;;;;;;105.30;51.10;;;;;;;-2.66;100.00;100347.60;103977;1345;22389;-32
2022/12/02 17:36:50;;;;;;;77.20;31.30;;;;;;;-2.67;100.00;100349.02;103828;1341;22576;-29
2022/12/02 17:39:17;;;;;;;74.40;32.40;;;;;;;-2.67;100.00;100348.87;103944;1347;22545;-28
2022/12/02 17:41:43;;;;;;;493.00;227.00;;;;;;;-2.72;100.00;100350.94;103953;1341;22238;-33
2022/12/02 17:44:09;;;;;;;140.90;72.70;;;;;;;-2.69;100.00;100350.38;103985;1335;22561;-29
2022/12/02 17:46:35;;;;;;;147.50;70.80;;;;;;;-2.63;100.00;100351.27;103890;1338;22455;-29
2022/12/02 17:55:23;;;;;;;162.70;66.60;;;;;;;-2.71;100.00;100350.13;102982;1355;544868;-32
2022/12/02 17:57:48;;;;;;;63.60;21.80;;;;;;;-2.73;100.00;100354.13;103441;1355;22697;-32
2022/12/02 18:00:14;;;;;;;94.70;41.50;;;;;;;-2.71;100.00;100347.90;103381;1355;22571;-29
2022/12/02 18:02:40;;;;;;;126.80;59.80;;;;;;;-2.72;100.00;100351.12;103500;1355;22562;-29
2022/12/02 18:05:06;;;;;;;65.60;26.20;;;;;;;-2.73;100.00;100348.85;103214;1355;22660;-32
2022/12/02 18:07:32;;;;;;;67.70;25.40;;;;;;;-2.72;100.00;100350.94;103432;1355;25558;-32
2022/12/02 18:09:57;;;;;;;205.00;96.70;;;;;;;-2.64;100.00;100352.54;103406;1349;373631;-32
2022/12/02 18:12:23;;;;;;;88.80;37.40;;;;;;;-2.71;100.00;100352.80;103394;1353;22566;-29
2022/12/02 18:14:48;;;;;;;72.40;29.70;;;;;;;-2.71;100.00;100354.89;103606;1352;22615;-28
2022/12/02 18:17:15;;;;;;;48.80;19.70;;;;;;;-2.73;100.00;100354.48;103028;1354;22708;-32
2022/12/02 18:19:40;;;;;;;35.80;17.30;;;;;;;-2.76;100.00;100352.89;103468;1349;22586;-32
2022/12/02 18:22:06;;;;;;;47.10;21.30;;;;;;;-2.74;100.00;100358.89;103598;1352;22568;-35
2022/12/02 18:24:31;;;;;;;73.40;28.30;;;;;;;-2.74;100.00;100357.36;103338;1347;22646;-33
2022/12/02 18:26:57;;;;;;;53.70;18.20;;;;;;;-2.67;100.00;100360.95;103457;1349;22777;-28
2022/12/02 18:29:22;;;;;;;203.20;80.60;;;;;;;-2.65;100.00;100360.16;103417;1355;22276;-32
2022/12/02 18:31:48;;;;;;;37.00;18.40;;;;;;;-2.67;100.00;100359.36;103668;1349;22587;-33
2022/12/02 18:34:14;;;;;;;202.80;86.00;;;;;;;-2.68;100.00;100356.27;103713;1350;22561;-29
2022/12/02 18:36:40;;;;;;;50.90;19.30;;;;;;;-2.69;100.00;100356.00;103761;1351;22574;-29
2022/12/02 18:39:05;;;;;;;68.70;20.50;;;;;;;-2.68;100.00;100361.18;103692;1346;22574;-33
2022/12/02 18:41:31;;;;;;;55.20;23.40;;;;;;;-2.67;100.00;100359.55;103781;1351;22527;-33
2022/12/02 18:43:57;;;;;;;62.30;30.60;;;;;;;-2.70;100.00;100362.52;103314;1352;22568;-32
2022/12/02 18:46:22;;;;;;;425.40;147.10;;;;;;;-2.68;100.00;100357.00;103205;1351;22568;-33
2022/12/02 18:48:48;;;;;;;335.30;118.10;;;;;;;-2.70;100.00;100357.81;103739;1337;22220;-33
2022/12/02 18:51:13;;;;;;;636.40;307.80;;;;;;;-2.68;100.00;100354.21;103706;1347;22588;-33
2022/12/02 18:53:39;;;;;;;127.30;46.10;;;;;;;-2.71;100.00;100353.87;103595;1352;23863;-29
2022/12/02 18:56:04;;;;;;;229.10;90.40;;;;;;;-2.73;100.00;100354.86;103809;1345;22572;-29
2022/12/02 18:58:31;;;;;;;163.40;80.80;;;;;;;-2.75;100.00;100352.83;103826;1347;22555;-33
2022/12/02 19:00:57;;;;;;;96.90;38.90;;;;;;;-2.73;100.00;100347.45;103763;1351;22588;-32
2022/12/02 19:03:22;;;;;;;128.50;52.90;;;;;;;-2.71;100.00;100348.25;103694;1339;22161;-29
2022/12/02 19:05:48;;;;;;;294.30;129.70;;;;;;;-2.75;100.00;100351.81;103687;1345;22570;-29
2022/12/02 19:08:13;;;;;;;402.40;143.90;;;;;;;-2.75;100.00;100349.85;103692;1345;24284;-33
2022/12/02 19:10:39;;;;;;;120.10;48.40;;;;;;;-2.75;100.00;100352.70;103095;1345;22595;-28
2022/12/02 19:13:04;;;;;;;129.00;53.40;;;;;;;-2.75;100.00;100352.48;103564;1346;22579;-33
2022/12/02 19:15:31;;;;;;;192.00;71.90;;;;;;;-2.72;100.00;100354.23;103667;1344;22151;-29
2022/12/02 19:17:56;;;;;;;116.60;45.10;;;;;;;-2.76;100.00;100355.53;103567;1347;22755;-33
2022/12/02 19:20:22;;;;;;;57.10;18.10;;;;;;;-2.77;100.00;100356.10;103805;1350;22601;-33
2022/12/02 19:22:47;;;;;;;59.20;20.70;;;;;;;-2.81;100.00;100356.69;103697;1345;23277;-33
2022/12/02 19:25:13;;;;;;;62.90;23.30;;;;;;;-2.81;100.00;100357.39;103815;1346;22574;-29
2022/12/02 19:27:38;;;;;;;157.00;75.00;;;;;;;-2.82;100.00;100359.22;103681;1345;22140;-29
2022/12/02 19:30:05;;;;;;;68.30;23.20;;;;;;;-2.82;100.00;100359.20;103764;1349;22608;-33
2022/12/02 19:32:31;;;;;;;66.50;22.90;;;;;;;-2.84;100.00;100362.08;103701;1351;22240;-33
2022/12/02 19:34:56;;;;;;;67.90;23.60;;;;;;;-2.84;100.00;100364.73;103676;1346;22577;-33
2022/12/02 19:37:22;;;;;;;94.00;33.80;;;;;;;-2.83;100.00;100359.42;103400;1349;22455;-29
2022/12/02 19:39:47;;;;;;;130.10;58.30;;;;;;;-2.81;100.00;100360.38;103560;1345;22585;-33
2022/12/02 19:42:14;;;;;;;48.70;20.50;;;;;;;-2.78;100.00;100362.81;103612;1344;22239;-33
2022/12/02 19:44:40;;;;;;;174.10;74.10;;;;;;;-2.76;100.00;100368.38;103743;1345;22426;-33
2022/12/02 19:47:05;;;;;;;117.50;45.40;;;;;;;-2.78;100.00;100365.27;103541;1347;22628;-33
2022/12/02 19:49:31;;;;;;;61.20;25.70;;;;;;;-2.78;100.00;100366.18;103579;1345;22570;-28
2022/12/02 19:51:57;;;;;;;124.10;49.30;;;;;;;-2.79;100.00;100364.15;103755;1351;22716;-32
2022/12/02 19:54:23;;;;;;;123.20;57.70;;;;;;;-2.77;100.00;100363.13;103565;1344;22576;-30
2022/12/02 19:56:48;;;;;;;74.60;30.10;;;;;;;-2.72;100.00;100366.90;103726;1346;22582;-30
2022/12/02 19:59:14;;;;;;;59.60;20.10;;;;;;;-2.77;100.00;100366.46;103706;1351;22225;-30
2022/12/02 20:01:39;;;;;;;50.30;23.00;;;;;;;-2.75;100.00;100363.55;103636;1347;24239;-34
2022/12/02 20:04:05;;;;;;;168.40;74.30;;;;;;;-2.78;100.00;100365.46;103697;1346;22451;-30
2022/12/02 20:06:30;;;;;;;62.50;23.10;;;;;;;-2.72;100.00;100366.34;103859;1352;22148;-30
2022/12/02 20:08:56;;;;;;;50.30;18.80;;;;;;;-2.79;100.00;100367.25;103435;1347;22217;-34
2022/12/02 20:11:22;;;;;;;68.00;32.80;;;;;;;-2.77;100.00;100365.95;103691;1345;22570;-33
2022/12/02 20:13:47;;;;;;;107.40;45.00;;;;;;;-2.77;100.00;100364.35;103141;1341;22865;-33
2022/12/02 20:16:13;;;;;;;158.40;74.00;;;;;;;-2.74;100.00;100366.63;103792;1345;22465;-34
2022/12/02 20:18:38;;;;;;;328.90;145.30;;;;;;;-2.75;100.00;100364.59;103677;1346;22585;-30
2022/12/02 20:21:04;;;;;;;124.40;46.30;;;;;;;-2.69;100.00;100363.19;103396;1345;22195;-30
2022/12/02 20:23:30;;;;;;;135.40;60.80;;;;;;;-2.73;100.00;100361.83;103510;1345;22277;-33
2022/12/02 20:25:56;;;;;;;141.10;61.90;;;;;;;-2.73;100.00;100358.14;103771;1345;22499;-33
2022/12/02 20:28:21;;;;;;;49.20;19.90;;;;;;;-2.74;100.00;100355.92;103693;1345;22577;-34
2022/12/02 20:30:47;;;;;;;59.20;21.50;;;;;;;-2.76;100.00;100359.91;103784;1349;22592;-30
2022/12/02 20:33:12;;;;;;;158.40;62.20;;;;;;;-2.76;100.00;100357.81;103780;1347;22310;-34
2022/12/02 20:35:38;;;;;;;79.50;33.20;;;;;;;-2.76;100.00;100356.61;103673;1345;22572;-34
2022/12/02 20:38:04;;;;;;;61.70;26.80;;;;;;;-2.78;100.00;100357.05;103706;1345;22559;-30
2022/12/02 20:40:29;;;;;;;112.30;52.10;;;;;;;-2.81;100.00;100359.34;103845;1345;22398;-34
2022/12/02 20:42:55;;;;;;;103.40;42.00;;;;;;;-2.79;100.00;100356.07;103718;1352;22544;-30
2022/12/02 20:45:21;;;;;;;150.30;67.30;;;;;;;-2.76;100.00;100350.83;103767;1345;22177;-30
2022/12/02 20:47:47;;;;;;;296.10;159.90;;;;;;;-2.77;100.00;100348.05;103768;1352;22278;-30
2022/12/02 20:50:12;;;;;;;74.40;32.50;;;;;;;-2.77;100.00;100347.88;103739;1345;22551;-30
2022/12/02 20:52:38;;;;;;;112.00;50.80;;;;;;;-2.80;100.00;100349.98;103836;1345;22714;-34
2022/12/02 20:55:05;;;;;;;50.60;21.70;;;;;;;-2.78;100.00;100348.32;103752;1345;24377;-31
2022/12/02 20:57:31;;;;;;;70.20;26.40;;;;;;;-2.76;100.00;100342.75;103831;1345;22643;-30
2022/12/02 20:59:57;;;;;;;63.60;25.30;;;;;;;-2.75;100.00;100343.02;103858;1345;22548;-31
2022/12/02 21:02:22;;;;;;;84.30;23.40;;;;;;;-2.73;100.00;100342.89;103885;1337;22557;-30
2022/12/02 21:04:48;;;;;;;71.70;22.70;;;;;;;-2.78;100.00;100343.89;103817;1345;22594;-30
2022/12/02 21:07:13;;;;;;;86.90;39.70;;;;;;;-2.78;100.00;100340.41;103368;1348;22559;-34
2022/12/02 21:09:39;;;;;;;76.40;34.50;;;;;;;-2.74;100.00;100337.37;103781;1346;24388;-34
2022/12/02 21:12:05;;;;;;;110.70;47.20;;;;;;;-2.77;100.00;100337.75;103702;1345;22322;-31
2022/12/02 21:14:30;;;;;;;85.10;33.10;;;;;;;-2.80;100.00;100337.33;103750;1346;22973;-30
2022/12/02 21:16:56;;;;;;;145.90;52.10;;;;;;;-2.83;100.00;100338.38;103704;1346;22309;-31
2022/12/02 21:19:21;;;;;;;157.80;72.20;;;;;;;-2.78;100.00;100339.50;103591;1346;23296;-30
2022/12/02 21:21:47;;;;;;;48.40;19.50;;;;;;;-2.78;100.00;100337.23;103627;1344;22629;-34
2022/12/02 21:24:12;;;;;;;180.90;71.50;;;;;;;-2.77;100.00;100338.45;103761;1345;22565;-34
2022/12/02 21:26:40;;;;;;;115.30;44.60;;;;;;;-2.79;100.00;100341.35;103783;1345;22325;-31
2022/12/02 21:29:08;;;;;;;44.80;17.50;;;;;;;-2.82;100.00;100344.84;103853;1345;22245;-30
2022/12/02 21:31:35;;;;;;;82.80;31.00;;;;;;;-2.85;100.00;100342.52;103880;1345;22272;-31
2022/12/02 21:34:01;;;;;;;85.50;29.90;;;;;;;-2.83;100.00;100340.14;103803;1349;22293;-34
2022/12/02 21:36:27;;;;;;;125.40;54.00;;;;;;;-2.80;100.00;100342.42;103864;1351;22262;-34
2022/12/02 21:38:52;;;;;;;95.00;34.70;;;;;;;-2.77;100.00;100340.20;103754;1345;22568;-31
2022/12/02 21:41:17;;;;;;;199.90;73.20;;;;;;;-2.77;100.00;100339.98;103820;1346;22568;-30
2022/12/02 21:43:43;;;;;;;144.90;57.80;;;;;;;-2.76;100.00;100342.55;103766;1338;22220;-31
2022/12/02 21:46:09;;;;;;;82.10;38.80;;;;;;;-2.68;100.00;100338.75;103755;1345;22397;-35
2022/12/02 21:48:34;;;;;;;71.30;30.90;;;;;;;-2.68;100.00;100338.75;103651;1346;22171;-31
2022/12/02 21:51:00;;;;;;;71.80;22.80;;;;;;;-2.70;100.00;100336.26;103817;1351;22285;-30
2022/12/02 21:53:25;;;;;;;63.30;21.90;;;;;;;-2.72;100.00;100335.81;103775;1345;22570;-31
2022/12/02 21:55:51;;;;;;;78.20;40.20;;;;;;;-2.66;100.00;100333.42;103745;1346;22230;-34
2022/12/02 21:58:16;;;;;;;63.60;30.60;;;;;;;-2.76;100.00;100332.38;103548;1345;23895;-31
2022/12/02 22:00:42;;;;;;;63.20;28.20;;;;;;;-2.72;100.00;100329.91;103950;1342;22564;-34
2022/12/02 22:03:08;;;;;;;78.20;26.70;;;;;;;-2.76;100.00;100334.15;103974;1342;22277;-34
2022/12/02 22:05:33;;;;;;;95.00;34.80;;;;;;;-2.77;100.00;100334.39;103756;1345;22185;-31
2022/12/02 22:07:59;;;;;;;71.60;26.70;;;;;;;-2.77;100.00;100333.86;103649;1339;22594;-34
2022/12/02 22:10:24;;;;;;;101.80;33.20;;;;;;;-2.79;100.00;100339.96;103392;1344;22285;-34
2022/12/02 22:12:50;;;;;;;58.20;28.10;;;;;;;-2.78;100.00;100334.95;103843;1342;22578;-31
2022/12/02 22:15:18;;;;;;;60.80;23.80;;;;;;;-2.72;100.00;100337.21;103648;1343;22560;-34
2022/12/02 22:17:44;;;;;;;72.60;26.30;;;;;;;-2.76;100.00;100332.59;103986;1342;22568;-31
2022/12/02 22:20:11;;;;;;;112.40;58.30;;;;;;;-2.76;100.00;100333.45;103808;1343;22509;-34
2022/12/02 22:22:36;;;;;;;150.50;62.20;;;;;;;-2.74;100.00;100334.40;103939;1342;22416;-34
2022/12/02 22:25:02;;;;;;;171.40;70.60;;;;;;;-2.73;100.00;100335.02;103815;1342;22276;-35
2022/12/02 22:27:28;;;;;;;78.70;31.30;;;;;;;-2.72;100.00;100334.46;103971;1342;22597;-31
2022/12/02 22:29:53;;;;;;;108.10;44.50;;;;;;;-2.71;100.00;100331.95;103833;1345;22321;-31
2022/12/02 22:32:19;;;;;;;53.80;21.50;;;;;;;-2.71;100.00;100326.30;103892;1342;22564;-34